createdAt,value
2019-04-23T00:00:37.568Z,50.86
2019-04-23T00:03:18.841Z,50.83
2019-04-23T00:05:41.444Z,51.29
2019-04-23T00:08:17.411Z,50.94
2019-04-23T00:10:45.944Z,50.72
2019-04-23T00:13:23.670Z,50.98
2019-04-23T00:15:58.651Z,50.73
2019-04-23T00:21:08.819Z,51.02
2019-04-23T00:23:47.887Z,51.16
2019-04-23T00:26:28.554Z,50.83
2019-04-23T00:29:00.528Z,50.63
2019-04-23T00:33:57.406Z,50.35
2019-04-23T00:36:44.799Z,50.21
2019-04-23T00:39:05.569Z,50.37
2019-04-23T00:41:39.141Z,49.65
2019-04-23T00:44:09.139Z,49.59
2019-04-23T00:46:45.196Z,49.77
2019-04-23T00:49:22.781Z,49.41
2019-04-23T00:52:07.459Z,49.19
2019-04-23T00:54:22.540Z,49.18
2019-04-23T00:56:52.654Z,49.21
2019-04-23T00:59:26.885Z,49.62
2019-04-23T01:02:00.910Z,49.77
2019-04-23T01:04:32.796Z,50.01
2019-04-23T01:07:05.254Z,50.30
2019-04-23T01:09:42.287Z,50.50
2019-04-23T01:12:19.116Z,50.30
2019-04-23T01:14:41.110Z,49.94
2019-04-23T01:17:29.936Z,50.32
2019-04-23T01:19:51.611Z,50.66
2019-04-23T01:22:04.175Z,50.42
2019-04-23T01:24:41.890Z,50.53
2019-04-23T01:32:44.103Z,49.93
2019-04-23T01:37:46.437Z,49.87
2019-04-23T01:40:27.220Z,49.44
2019-04-23T01:43:01.700Z,49.41
2019-04-23T01:45:43.774Z,49.56
2019-04-23T01:48:18.472Z,49.41
2019-04-23T01:53:23.336Z,49.32
2019-04-23T01:55:46.755Z,49.32
2019-04-23T02:00:52.892Z,49.98
2019-04-23T02:03:30.803Z,49.67
2019-04-23T02:06:03.297Z,49.31
2019-04-23T02:08:26.153Z,49.37
2019-04-23T02:11:06.802Z,49.06
2019-04-23T02:13:43.001Z,48.81
2019-04-23T02:16:04.374Z,49.13
2019-04-23T02:18:40.105Z,49.08
2019-04-23T02:21:12.094Z,48.99
2019-04-23T02:23:52.152Z,49.08
2019-04-23T02:26:39.910Z,48.69
2019-04-23T02:29:06.715Z,49.17
2019-04-23T02:34:25.388Z,49.51
2019-04-23T02:36:46.737Z,49.22
2019-04-23T02:39:03.415Z,49.26
2019-04-23T02:41:54.410Z,49.54
2019-04-23T02:47:03.497Z,49.58
2019-04-23T02:49:36.190Z,49.84
2019-04-23T02:56:59.166Z,49.78
2019-04-23T03:07:36.721Z,49.60
2019-04-23T03:09:58.800Z,50.03
2019-04-23T03:12:37.935Z,49.84
2019-04-23T03:15:11.055Z,49.94
2019-04-23T03:18:16.072Z,50.12
2019-04-23T03:20:45.514Z,49.95
2019-04-23T03:23:10.109Z,49.83
2019-04-23T03:25:45.462Z,50.21
2019-04-23T03:28:23.143Z,50.39
2019-04-23T03:38:43.128Z,50.21
2019-04-23T03:43:39.051Z,50.56
2019-04-23T03:46:16.089Z,50.25
2019-04-23T03:49:05.557Z,50.25
2019-04-23T03:51:09.603Z,50.42
2019-04-23T03:53:53.746Z,50.52
2019-04-23T03:56:22.896Z,50.42
2019-04-23T03:58:47.562Z,50.42
2019-04-23T04:01:29.854Z,50.24
2019-04-23T04:06:37.648Z,50.32
2019-04-23T04:09:08.098Z,50.57
2019-04-23T04:11:34.505Z,50.28
2019-04-23T04:14:25.276Z,49.84
2019-04-23T04:16:43.293Z,49.92
2019-04-23T04:19:16.749Z,49.81
2019-04-23T04:24:24.834Z,49.59
2019-04-23T04:29:28.672Z,49.62
2019-04-23T04:31:47.755Z,49.87
2019-04-23T04:37:26.914Z,49.45
2019-04-23T04:39:35.924Z,49.08
2019-04-23T04:42:12.064Z,49.18
2019-04-23T04:44:43.505Z,48.74
2019-04-23T04:49:51.339Z,48.62
2019-04-23T04:52:34.956Z,48.74
2019-04-23T04:54:35.075Z,48.39
2019-04-23T04:57:30.247Z,48.06
2019-04-23T05:02:53.601Z,47.87
2019-04-23T05:05:13.707Z,47.66
2019-04-23T05:12:54.986Z,47.29
2019-04-23T05:17:57.223Z,47.23
2019-04-23T05:20:19.899Z,46.65
2019-04-23T05:23:02.789Z,46.34
2019-04-23T05:25:20.303Z,46.33
2019-04-23T05:28:06.063Z,45.64
2019-04-23T05:30:33.151Z,45.87
2019-04-23T05:33:09.657Z,45.70
2019-04-23T05:40:52.009Z,44.95
2019-04-23T05:43:12.394Z,45.36
2019-04-23T05:45:41.377Z,44.88
2019-04-23T05:48:20.102Z,45.08
2019-04-23T05:53:18.671Z,44.25
2019-04-23T05:55:55.367Z,44.09
2019-04-23T05:58:28.705Z,43.53
2019-04-23T06:01:25.134Z,43.33
2019-04-23T06:03:41.913Z,43.48
2019-04-23T06:06:18.460Z,43.47
2019-04-23T06:08:51.428Z,43.24
2019-04-23T06:11:22.654Z,43.16
2019-04-23T06:14:02.077Z,42.99
2019-04-23T06:16:31.558Z,42.47
2019-04-23T06:19:02.665Z,42.95
2019-04-23T06:21:33.939Z,42.69
2019-04-23T06:24:15.032Z,42.61
2019-04-23T06:29:19.464Z,42.62
2019-04-23T06:34:16.715Z,42.15
2019-04-23T06:36:46.060Z,42.30
2019-04-23T06:39:15.826Z,42.30
2019-04-23T06:41:50.064Z,42.31
2019-04-23T06:44:25.613Z,42.13
2019-04-23T06:47:03.209Z,42.14
2019-04-23T06:52:15.055Z,41.73
2019-04-23T06:54:42.865Z,41.76
2019-04-23T06:57:14.147Z,41.83
2019-04-23T06:59:41.243Z,42.08
2019-04-23T07:04:56.781Z,35.04
2019-04-23T07:09:52.362Z,34.63
2019-04-23T07:12:41.367Z,35.50
2019-04-23T07:17:39.492Z,31.56
2019-04-23T07:20:04.894Z,31.59
2019-04-23T07:22:34.666Z,34.53
2019-04-23T07:27:41.093Z,32.29
2019-04-23T07:32:49.644Z,32.86
2019-04-23T07:35:15.740Z,33.16
2019-04-23T07:38:08.818Z,30.42
2019-04-23T07:43:08.080Z,33.51
2019-04-23T07:46:08.228Z,32.04
2019-04-23T07:48:32.106Z,33.53
2019-04-23T07:51:06.184Z,33.12
2019-04-23T07:53:39.882Z,33.01
2019-04-23T07:56:18.730Z,31.41
2019-04-23T07:58:40.021Z,30.42
2019-04-23T08:01:18.360Z,31.67
2019-04-23T08:06:26.132Z,31.07
2019-04-23T08:08:56.538Z,32.86
2019-04-23T08:14:03.376Z,32.09
2019-04-23T08:16:56.174Z,31.83
2019-04-23T08:19:07.751Z,32.39
2019-04-23T08:21:47.098Z,32.49
2019-04-23T08:24:16.992Z,29.87
2019-04-23T08:26:55.297Z,28.37
2019-04-23T08:29:28.032Z,28.51
2019-04-23T08:32:11.800Z,30.93
2019-04-23T08:39:46.490Z,32.89
2019-04-23T08:45:18.700Z,31.38
2019-04-23T08:47:59.087Z,31.75
2019-04-23T08:50:24.889Z,29.84
2019-04-23T08:52:58.573Z,29.29
2019-04-23T08:55:34.972Z,28.94
2019-04-23T08:58:04.675Z,28.66
2019-04-23T09:00:49.872Z,28.09
2019-04-23T09:03:20.012Z,27.63
2019-04-23T09:08:32.722Z,31.75
2019-04-23T09:10:56.733Z,29.83
2019-04-23T09:15:56.224Z,27.49
2019-04-23T09:18:29.090Z,28.04
2019-04-23T09:21:10.544Z,27.73
2019-04-23T09:23:54.439Z,27.05
2019-04-23T09:26:08.925Z,28.25
2019-04-23T09:31:45.614Z,27.91
2019-04-23T09:34:04.906Z,28.40
2019-04-23T09:36:51.056Z,29.34
2019-04-23T09:39:34.637Z,30.29
2019-04-23T09:42:16.146Z,28.98
2019-04-23T09:45:05.441Z,29.75
2019-04-23T09:47:51.927Z,28.22
2019-04-23T09:52:57.560Z,29.57
2019-04-23T10:00:40.620Z,30.06
2019-04-23T10:02:53.458Z,28.70
2019-04-23T10:05:26.734Z,28.69
2019-04-23T10:07:58.665Z,27.98
2019-04-23T10:10:23.494Z,28.53
2019-04-23T10:12:58.135Z,30.00
2019-04-23T10:15:36.636Z,30.50
2019-04-23T10:18:04.698Z,29.28
2019-04-23T10:20:36.331Z,28.70
2019-04-23T10:23:08.354Z,27.80
2019-04-23T10:25:40.369Z,28.58
2019-04-23T10:28:26.551Z,31.12
2019-04-23T10:30:58.691Z,28.77
2019-04-23T10:33:31.676Z,30.64
2019-04-23T10:36:08.618Z,29.07
2019-04-23T10:38:36.425Z,28.67
2019-04-23T10:41:09.791Z,29.06
2019-04-23T10:43:44.571Z,29.06
2019-04-23T10:46:36.588Z,31.02
2019-04-23T10:52:04.803Z,28.45
2019-04-23T10:57:03.974Z,29.21
2019-04-23T11:09:55.693Z,29.04
2019-04-23T11:15:35.660Z,29.57
2019-04-23T11:17:47.735Z,31.10
2019-04-23T11:20:35.404Z,30.43
2019-04-23T11:22:55.458Z,31.57
2019-04-23T11:28:18.611Z,29.51
2019-04-23T11:30:41.673Z,30.01
2019-04-23T11:33:19.993Z,29.99
2019-04-23T11:36:35.659Z,27.45
2019-04-23T11:38:49.059Z,28.65
2019-04-23T11:40:59.946Z,28.44
2019-04-23T11:43:32.421Z,29.84
2019-04-23T11:46:25.135Z,29.85
2019-04-23T11:48:52.350Z,30.16
2019-04-23T11:51:51.368Z,29.12
2019-04-23T11:53:54.601Z,29.23
2019-04-23T11:56:51.500Z,29.16
2019-04-23T11:58:52.490Z,30.21
2019-04-23T12:01:46.517Z,29.03
2019-04-23T12:04:31.032Z,28.18
2019-04-23T12:07:02.392Z,27.64
2019-04-23T12:10:04.820Z,28.49
2019-04-23T12:15:13.536Z,29.57
2019-04-23T12:17:53.889Z,30.79
2019-04-23T12:20:27.148Z,31.10
2019-04-23T12:23:04.314Z,30.98
2019-04-23T12:25:36.706Z,30.44
2019-04-23T12:27:55.279Z,29.71
2019-04-23T12:30:39.485Z,30.34
2019-04-23T12:33:12.966Z,30.83
2019-04-23T12:35:40.758Z,30.83
2019-04-23T12:40:46.563Z,30.81
2019-04-23T12:43:19.147Z,31.37
2019-04-23T12:45:47.284Z,31.72
2019-04-23T12:48:44.043Z,31.64
2019-04-23T12:51:17.138Z,32.02
2019-04-23T12:53:37.954Z,32.56
2019-04-23T12:56:11.010Z,32.46
2019-04-23T12:58:32.218Z,32.48
2019-04-23T13:01:16.349Z,31.92
2019-04-23T13:03:39.232Z,31.00
2019-04-23T13:06:17.045Z,31.72
2019-04-23T13:08:52.301Z,33.09
2019-04-23T13:11:33.357Z,33.39
2019-04-23T13:14:03.100Z,33.14
2019-04-23T13:16:37.726Z,33.57
2019-04-23T13:19:18.955Z,33.72
2019-04-23T13:24:26.028Z,33.43
2019-04-23T13:27:05.706Z,33.49
2019-04-23T13:29:41.549Z,32.78
2019-04-23T13:32:03.521Z,33.14
2019-04-23T13:37:16.605Z,32.11
2019-04-23T13:39:48.789Z,32.41
2019-04-23T13:42:35.643Z,32.93
2019-04-23T13:44:57.470Z,32.38
2019-04-23T13:50:32.790Z,32.21
2019-04-23T13:52:57.903Z,32.04
2019-04-23T14:00:24.734Z,32.80
2019-04-23T14:02:46.004Z,32.26
2019-04-23T14:08:00.851Z,31.85
2019-04-23T14:10:46.591Z,31.37
2019-04-23T14:15:55.756Z,32.02
2019-04-23T14:20:55.419Z,32.46
2019-04-23T14:23:41.547Z,32.20
2019-04-23T14:36:19.270Z,31.28
2019-04-23T14:38:49.792Z,32.57
2019-04-23T14:41:23.532Z,32.98
2019-04-23T14:51:39.705Z,31.70
2019-04-23T14:54:15.692Z,32.47
2019-04-23T14:56:46.289Z,32.43
2019-04-23T14:59:24.187Z,31.87
2019-04-23T15:01:48.943Z,31.80
2019-04-23T15:04:20.505Z,31.06
2019-04-23T15:09:53.233Z,32.35
2019-04-23T15:12:10.049Z,32.49
2019-04-23T15:14:47.942Z,33.15
2019-04-23T15:17:07.155Z,33.41
2019-04-23T15:19:47.866Z,32.96
2019-04-23T15:22:21.677Z,33.52
2019-04-23T15:24:50.246Z,33.64
2019-04-23T15:29:53.366Z,33.57
2019-04-23T15:38:16.186Z,34.09
2019-04-23T15:40:23.009Z,33.78
2019-04-23T15:42:56.167Z,34.14
2019-04-23T15:45:22.950Z,34.13
2019-04-23T15:48:00.494Z,34.34
2019-04-23T15:50:28.342Z,34.08
2019-04-23T15:55:38.650Z,34.33
2019-04-23T15:58:28.147Z,34.54
2019-04-23T16:00:38.435Z,34.34
2019-04-23T16:02:44.679Z,34.42
2019-04-23T16:05:18.456Z,34.37
2019-04-23T16:08:09.815Z,34.44
2019-04-23T16:10:54.617Z,34.28
2019-04-23T16:13:32.476Z,34.37
2019-04-23T16:16:03.951Z,34.62
2019-04-23T16:18:35.113Z,34.59
2019-04-23T16:21:10.647Z,34.64
2019-04-23T16:23:42.403Z,34.72
2019-04-23T16:26:14.553Z,34.94
2019-04-23T16:31:23.575Z,35.05
2019-04-23T16:34:14.209Z,35.17
2019-04-23T16:36:41.634Z,35.25
2019-04-23T16:39:10.269Z,35.62
2019-04-23T16:41:52.153Z,35.51
2019-04-23T16:44:24.113Z,35.81
2019-04-23T16:46:55.962Z,36.51
2019-04-23T16:52:01.798Z,37.53
2019-04-23T16:54:42.356Z,40.59
2019-04-23T17:00:08.163Z,46.37
2019-04-23T17:02:14.835Z,52.76
2019-04-23T17:04:47.744Z,52.51
2019-04-23T17:07:26.469Z,49.67
2019-04-23T17:10:00.607Z,48.46
2019-04-23T17:12:38.707Z,48.49
2019-04-23T17:15:03.261Z,47.47
2019-04-23T17:17:25.310Z,46.51
2019-04-23T17:20:08.609Z,45.79
2019-04-23T17:22:38.586Z,44.23
2019-04-23T17:27:48.566Z,41.61
2019-04-23T17:30:25.762Z,42.35
2019-04-23T17:33:12.154Z,40.41
2019-04-23T17:35:55.700Z,40.82
2019-04-23T17:38:27.925Z,40.46
2019-04-23T17:41:07.002Z,40.21
2019-04-23T17:43:44.388Z,39.37
2019-04-23T17:46:14.362Z,39.47
2019-04-23T17:48:43.886Z,39.98
2019-04-23T17:51:13.326Z,40.16
2019-04-23T17:53:56.169Z,40.39
2019-04-23T17:59:00.651Z,39.88
2019-04-23T18:09:34.346Z,40.23
2019-04-23T18:11:49.363Z,40.33
2019-04-23T18:14:13.235Z,40.41
2019-04-23T18:19:34.388Z,40.69
2019-04-23T18:22:18.779Z,40.93
2019-04-23T18:25:04.518Z,40.50
2019-04-23T18:27:38.402Z,41.12
2019-04-23T18:30:15.757Z,41.34
2019-04-23T18:33:16.738Z,41.13
2019-04-23T18:38:00.533Z,41.78
2019-04-23T18:40:28.560Z,42.37
2019-04-23T18:53:45.644Z,42.61
2019-04-23T18:56:13.401Z,42.50
2019-04-23T19:09:16.390Z,42.75
2019-04-23T19:12:19.634Z,42.51
2019-04-23T19:14:38.959Z,42.59
2019-04-23T19:19:44.116Z,42.80
2019-04-23T19:24:37.698Z,42.24
2019-04-23T19:27:18.892Z,42.28
2019-04-23T19:29:49.804Z,42.11
2019-04-23T19:32:14.378Z,41.80
2019-04-23T19:34:56.318Z,41.62
2019-04-23T19:37:43.447Z,41.98
2019-04-23T19:40:00.991Z,41.83
2019-04-23T19:42:44.045Z,41.12
2019-04-23T19:45:08.410Z,41.41
2019-04-23T19:50:15.254Z,40.95
2019-04-23T19:53:03.114Z,41.01
2019-04-23T19:55:35.205Z,40.57
2019-04-23T19:58:04.688Z,40.54
2019-04-23T20:01:01.975Z,40.80
2019-04-23T20:03:26.409Z,40.73
2019-04-23T20:05:56.629Z,40.28
2019-04-23T20:08:34.053Z,40.17
2019-04-23T20:11:01.291Z,40.41
2019-04-23T20:13:45.707Z,40.43
2019-04-23T20:16:22.483Z,40.40
2019-04-23T20:18:50.582Z,40.65
2019-04-23T20:21:08.931Z,40.33
2019-04-23T20:24:03.911Z,40.25
2019-04-23T20:32:57.574Z,40.74
2019-04-23T20:36:53.151Z,40.53
2019-04-23T20:52:13.744Z,39.91
2019-04-23T20:54:58.474Z,40.13
2019-04-23T21:00:20.755Z,39.94
2019-04-23T21:05:22.829Z,40.08
2019-04-23T21:13:09.235Z,40.80
2019-04-23T21:15:37.621Z,41.15
2019-04-23T21:18:18.921Z,41.26
2019-04-23T21:20:54.690Z,41.49
2019-04-23T21:23:14.160Z,41.61
2019-04-23T21:25:50.749Z,42.02
2019-04-23T21:36:22.153Z,43.31
2019-04-23T21:39:18.883Z,43.31
2019-04-23T21:41:45.308Z,43.56
2019-04-23T21:46:45.874Z,44.19
2019-04-23T21:49:41.338Z,44.31
2019-04-23T21:54:13.303Z,44.81
2019-04-23T21:59:23.105Z,45.01
2019-04-23T22:02:03.506Z,44.91
2019-04-23T22:04:35.727Z,44.57
2019-04-23T22:06:59.099Z,44.57
2019-04-23T22:09:46.067Z,44.84
2019-04-23T22:12:08.757Z,44.95
2019-04-23T22:14:47.487Z,45.31
2019-04-23T22:17:18.357Z,45.10
2019-04-23T22:19:55.674Z,45.01
2019-04-23T22:22:32.326Z,45.19
2019-04-23T22:24:57.204Z,45.50
2019-04-23T22:27:39.642Z,45.73
2019-04-23T22:30:25.891Z,46.01
2019-04-23T22:35:10.790Z,46.33
2019-04-23T22:37:52.048Z,46.27
2019-04-23T22:40:12.673Z,46.39
2019-04-23T22:45:43.093Z,46.47
2019-04-23T22:50:41.538Z,46.39
2019-04-23T22:53:08.685Z,46.41
2019-04-23T22:55:55.490Z,46.30
2019-04-23T22:58:16.180Z,46.38
2019-04-23T23:01:15.889Z,46.38
2019-04-23T23:03:42.238Z,46.18
2019-04-23T23:06:25.988Z,46.46
2019-04-23T23:09:07.876Z,46.38
2019-04-23T23:11:16.285Z,46.24
2019-04-23T23:14:10.201Z,46.29
2019-04-23T23:16:30.325Z,46.18
2019-04-23T23:19:07.467Z,45.92
2019-04-23T23:21:43.049Z,45.76
2019-04-23T23:24:06.287Z,45.74
2019-04-23T23:26:42.878Z,45.90
2019-04-23T23:29:06.364Z,46.12
2019-04-23T23:31:51.903Z,46.21
2019-04-23T23:34:15.372Z,46.21
2019-04-23T23:37:08.243Z,46.49
2019-04-23T23:39:28.812Z,46.44
2019-04-23T23:42:02.837Z,46.63
2019-04-23T23:44:58.305Z,46.85
2019-04-23T23:47:12.698Z,46.81
2019-04-23T23:49:48.516Z,46.98
2019-04-23T23:52:09.607Z,47.41
2019-04-23T23:54:45.179Z,47.36
2019-04-23T23:57:16.596Z,47.57
